Aviation Digital Data Service (ADDS)

Output produced by METARs form (0330 UTC 01 August 2015)
found at http://aviationweather.gov/adds/metars/
 
KMSS 312333Z 0100/0124 22007KT P6SM FEW150 
     FM010500 22007KT 5SM -SHRA BR BKN050 
     FM011100 24010KT P6SM SCT110 
     FM012000 24010KT P6SM VCSH BKN090 
     FM012200 24009KT P6SM BKN110